Time;durP1;ratioP1;P1;durP2;ratioP2;P2;SDS_P1;SDS_P2;PMS_P1;PMS_P2;Temp;Humidity;BMP_temperature;BMP_pressure;BME280_temperature;BME280_humidity;BME280_pressure;Samples;Min_cycle;Max_cycle;Signal;HPM_P1;HPM_P2
2021/03/25 00:01:32;;;;;;;71.05;28.30;;;5.70;99.90;;;;;;4999208;28;20054;-70
2021/03/25 00:03:58;;;;;;;73.43;28.73;;;5.60;99.90;;;;;;4999398;28;20038;-70
2021/03/25 00:06:27;;;;;;;77.22;27.95;;;5.60;99.90;;;;;;4999844;28;20029;-71
2021/03/25 00:08:53;;;;;;;71.15;26.77;;;5.50;99.90;;;;;;5003173;28;20037;-71
2021/03/25 00:11:20;;;;;;;79.72;28.23;;;5.40;99.90;;;;;;5003711;28;20045;-70
2021/03/25 00:13:46;;;;;;;66.28;27.00;;;5.50;99.90;;;;;;5002181;28;20824;-71
2021/03/25 00:16:13;;;;;;;67.10;27.50;;;5.40;99.90;;;;;;5002834;28;20030;-71
2021/03/25 00:18:40;;;;;;;69.40;25.85;;;5.40;99.90;;;;;;5002376;28;20680;-71
2021/03/25 00:21:08;;;;;;;70.53;26.58;;;5.40;99.90;;;;;;5003090;28;20034;-70
2021/03/25 00:23:35;;;;;;;75.10;28.45;;;5.40;99.90;;;;;;5003739;28;20037;-71
2021/03/25 00:26:01;;;;;;;68.68;29.10;;;5.30;99.90;;;;;;5003115;28;20744;-71
2021/03/25 00:28:27;;;;;;;77.65;27.60;;;5.20;99.90;;;;;;5001329;28;20112;-70
2021/03/25 00:30:53;;;;;;;63.35;26.33;;;5.20;99.90;;;;;;5002276;28;20033;-71
2021/03/25 00:33:21;;;;;;;70.32;26.48;;;5.10;99.90;;;;;;5001140;28;20088;-71
2021/03/25 00:35:48;;;;;;;79.30;27.45;;;5.00;99.90;;;;;;5002716;28;20048;-71
2021/03/25 00:38:14;;;;;;;63.30;25.98;;;5.00;99.90;;;;;;5003644;28;20033;-71
2021/03/25 00:40:41;;;;;;;55.42;24.63;;;5.00;99.90;;;;;;5002544;28;20707;-70
2021/03/25 00:43:08;;;;;;;73.65;27.92;;;5.00;99.90;;;;;;5002834;28;20153;-71
2021/03/25 00:45:38;;;;;;;61.38;25.17;;;5.00;99.90;;;;;;5002517;28;20022;-71
2021/03/25 00:48:05;;;;;;;61.30;24.42;;;5.00;99.90;;;;;;5001406;28;20037;-70
2021/03/25 00:50:35;;;;;;;63.85;24.98;;;4.90;99.90;;;;;;5001036;28;20033;-71
2021/03/25 00:53:03;;;;;;;71.72;26.75;;;4.80;99.90;;;;;;5002953;28;20065;-70
2021/03/25 00:55:29;;;;;;;71.35;26.10;;;4.80;99.90;;;;;;5001892;28;20045;-71
2021/03/25 00:57:55;;;;;;;83.00;28.95;;;4.80;99.90;;;;;;5003479;28;20041;-71
2021/03/25 01:00:26;;;;;;;73.85;26.13;;;4.70;99.90;;;;;;5002114;28;20026;-70
2021/03/25 01:02:52;;;;;;;61.05;25.27;;;4.70;99.90;;;;;;5003055;28;20658;-71
2021/03/25 01:05:19;;;;;;;70.32;25.98;;;4.70;99.90;;;;;;5001323;28;20033;-71
2021/03/25 01:07:45;;;;;;;60.03;25.15;;;4.60;99.90;;;;;;5002103;28;20116;-71
2021/03/25 01:10:19;;;;;;;58.38;26.40;;;4.60;99.90;;;;;;5002712;28;20083;-71
2021/03/25 01:12:45;;;;;;;61.28;24.05;;;4.60;99.90;;;;;;5001721;28;20029;-71
2021/03/25 01:15:12;;;;;;;61.90;27.30;;;4.50;99.90;;;;;;5001904;28;20381;-70
2021/03/25 01:17:58;;;;;;;63.85;26.50;;;4.50;99.90;;;;;;5002076;28;20479;-71
2021/03/25 01:20:27;;;;;;;63.95;26.17;;;4.40;99.90;;;;;;5001368;28;20866;-70
2021/03/25 01:22:53;;;;;;;64.57;27.15;;;4.40;99.90;;;;;;5002359;28;20045;-71
2021/03/25 01:25:21;;;;;;;63.05;25.50;;;4.30;99.90;;;;;;4999876;28;20032;-70
2021/03/25 01:27:47;;;;;;;62.22;25.52;;;4.30;99.90;;;;;;5001821;28;20034;-71
2021/03/25 01:30:14;;;;;;;59.10;23.38;;;4.30;99.90;;;;;;5001417;28;20022;-70
2021/03/25 01:32:40;;;;;;;53.33;22.80;;;4.20;99.90;;;;;;4998959;28;20168;-70
2021/03/25 01:35:09;;;;;;;55.28;21.52;;;4.20;99.90;;;;;;5001569;28;20026;-70
2021/03/25 01:37:38;;;;;;;58.58;22.70;;;4.10;99.90;;;;;;5000290;28;20147;-70
2021/03/25 01:40:29;;;;;;;56.53;23.10;;;4.10;99.90;;;;;;5001636;28;20032;-71
2021/03/25 01:43:06;;;;;;;;;;;4.00;99.90;;;;;;5002469;28;20029;-70
2021/03/25 01:45:50;;;;;;;47.35;19.98;;;4.00;99.90;;;;;;5000801;28;19909;-70
2021/03/25 01:48:20;;;;;;;45.30;20.65;;;3.90;99.90;;;;;;5001128;28;20028;-70
2021/03/25 01:50:46;;;;;;;50.38;22.48;;;3.90;99.90;;;;;;5001054;28;20026;-70
2021/03/25 01:53:41;;;;;;;49.78;23.05;;;3.90;99.90;;;;;;5001742;28;20030;-70
2021/03/25 01:56:26;;;;;;;54.53;22.02;;;3.90;99.90;;;;;;5000733;28;20029;-70
2021/03/25 01:59:13;;;;;;;56.38;23.48;;;3.80;99.90;;;;;;5000945;28;20056;-70
2021/03/25 02:01:51;;;;;;;63.08;23.60;;;3.80;99.90;;;;;;5001590;28;20026;-71
2021/03/25 02:04:22;;;;;;;49.20;22.60;;;3.80;99.90;;;;;;5000600;28;20075;-71
2021/03/25 02:07:03;;;;;;;67.07;23.85;;;3.80;99.90;;;;;;5000984;28;20037;-71
2021/03/25 02:09:57;;;;;;;54.72;23.10;;;3.80;99.90;;;;;;5000796;28;20386;-71
2021/03/25 02:12:36;;;;;;;66.78;23.83;;;3.80;99.90;;;;;;4999587;28;20026;-70
2021/03/25 02:15:12;;;;;;;55.00;21.95;;;3.80;99.90;;;;;;5001046;28;20030;-70
2021/03/25 02:17:52;;;;;;;61.22;24.63;;;3.80;99.90;;;;;;5001317;28;20436;-70
2021/03/25 02:20:35;;;;;;;63.45;23.27;;;3.90;99.90;;;;;;4999868;28;20061;-70
2021/03/25 02:23:31;;;;;;;59.03;23.23;;;3.80;99.90;;;;;;5000206;28;20069;-71
2021/03/25 02:26:17;;;;;;;63.65;24.13;;;3.80;99.90;;;;;;5000215;28;20041;-71
2021/03/25 02:29:04;;;;;;;59.47;25.95;;;3.80;99.90;;;;;;4999881;28;20096;-71
2021/03/25 02:31:35;;;;;;;63.10;25.88;;;3.80;99.90;;;;;;5000114;28;20578;-71
2021/03/25 02:34:10;;;;;;;63.30;26.35;;;3.90;99.90;;;;;;5000922;28;20034;-70
2021/03/25 02:36:46;;;;;;;63.17;25.85;;;3.80;99.90;;;;;;4999980;28;20034;-70
2021/03/25 02:39:19;;;;;;;72.82;26.55;;;3.90;99.90;;;;;;5000042;28;20087;-71
2021/03/25 02:41:50;;;;;;;57.88;24.88;;;3.90;99.90;;;;;;4999930;28;20057;-70
2021/03/25 02:44:30;;;;;;;62.20;26.63;;;3.90;99.90;;;;;;5000594;28;20030;-70
2021/03/25 02:47:09;;;;;;;59.50;23.65;;;3.90;99.90;;;;;;4999777;28;20121;-70
2021/03/25 02:49:51;;;;;;;63.77;24.50;;;3.90;99.90;;;;;;5000610;28;20022;-71
2021/03/25 02:52:23;;;;;;;63.33;25.30;;;3.90;99.90;;;;;;5000518;28;20438;-70
2021/03/25 02:54:51;;;;;;;72.80;26.38;;;3.80;99.90;;;;;;4999159;28;20041;-70
2021/03/25 02:57:24;;;;;;;63.20;23.63;;;3.80;99.90;;;;;;5000126;28;20057;-71
2021/03/25 02:59:55;;;;;;;64.38;24.25;;;3.80;99.90;;;;;;4999833;28;20068;-71
2021/03/25 03:02:50;;;;;;;58.03;24.02;;;3.80;99.90;;;;;;4999314;28;20037;-70
2021/03/25 03:05:22;;;;;;;61.58;24.40;;;3.70;99.90;;;;;;5000024;28;20026;-70
2021/03/25 03:07:57;;;;;;;54.13;24.17;;;3.70;99.90;;;;;;5000987;28;20049;-70
2021/03/25 03:10:27;;;;;;;59.00;23.92;;;3.70;99.90;;;;;;4999413;28;20049;-70
2021/03/25 03:12:57;;;;;;;53.70;23.60;;;3.70;99.90;;;;;;4999844;28;20022;-70
2021/03/25 03:15:29;;;;;;;65.10;25.90;;;3.60;99.90;;;;;;4999657;28;20112;-71
2021/03/25 03:18:09;;;;;;;62.15;23.13;;;3.60;99.90;;;;;;4999542;28;20803;-70
2021/03/25 03:20:42;;;;;;;60.80;23.75;;;3.70;99.90;;;;;;4998680;28;20708;-70
2021/03/25 03:23:09;;;;;;;54.25;22.90;;;3.50;99.90;;;;;;4999778;28;20042;-71
2021/03/25 03:25:36;;;;;;;53.30;21.98;;;3.50;99.90;;;;;;4999724;28;20026;-70
2021/03/25 03:28:07;;;;;;;65.97;23.27;;;3.60;99.90;;;;;;5000243;28;20049;-70
2021/03/25 03:30:37;;;;;;;56.13;23.63;;;3.50;99.90;;;;;;4999497;28;20104;-70
2021/03/25 03:33:31;;;;;;;55.10;21.83;;;3.50;99.90;;;;;;4999644;28;20069;-71
2021/03/25 03:36:04;;;;;;;53.63;21.15;;;3.50;99.90;;;;;;4998908;28;20061;-70
2021/03/25 03:39:02;;;;;;;58.72;22.75;;;3.50;99.90;;;;;;4997765;28;20556;-70
2021/03/25 03:41:35;;;;;;;63.20;21.90;;;3.50;99.90;;;;;;5001684;28;20073;-70
2021/03/25 03:44:05;;;;;;;53.40;21.13;;;3.50;99.90;;;;;;5005919;28;20088;-71
2021/03/25 03:46:32;;;;;;;52.42;21.88;;;3.50;99.90;;;;;;5005933;28;20037;-70
2021/03/25 03:49:09;;;;;;;59.08;23.30;;;3.50;99.90;;;;;;5005752;28;20512;-70
2021/03/25 03:51:48;;;;;;;48.50;20.48;;;3.50;99.90;;;;;;5006137;28;20115;-70
2021/03/25 03:54:15;;;;;;;52.93;22.23;;;3.40;99.90;;;;;;5005787;28;20560;-70
2021/03/25 03:57:08;;;;;;;50.30;20.13;;;3.40;99.90;;;;;;5005749;28;20041;-70
2021/03/25 04:00:27;;;;;;;47.08;19.52;;;3.40;99.90;;;;;;5006313;28;20056;-71
2021/03/25 04:03:04;;;;;;;51.70;19.63;;;3.40;99.90;;;;;;5003142;28;20053;-70
2021/03/25 04:05:39;;;;;;;44.25;18.48;;;3.40;99.90;;;;;;5002146;28;20034;-70
2021/03/25 04:08:23;;;;;;;49.75;20.33;;;3.30;99.90;;;;;;5004943;28;20076;-71
2021/03/25 04:11:18;;;;;;;53.65;21.27;;;3.30;99.90;;;;;;5005894;28;20032;-70
2021/03/25 04:13:49;;;;;;;47.10;19.50;;;3.30;99.90;;;;;;5005852;28;20048;-70
2021/03/25 04:16:20;;;;;;;43.55;18.27;;;3.20;99.90;;;;;;5005581;28;20054;-70
2021/03/25 04:19:01;;;;;;;43.42;19.23;;;3.20;99.90;;;;;;5004891;28;20050;-70
2021/03/25 04:21:37;;;;;;;42.35;18.15;;;3.10;99.90;;;;;;5006009;28;20393;-70
2021/03/25 04:24:15;;;;;;;44.60;19.95;;;3.10;99.90;;;;;;5005645;28;20034;-71
2021/03/25 04:26:44;;;;;;;42.85;17.42;;;3.10;99.90;;;;;;5006125;28;20052;-70
2021/03/25 04:29:17;;;;;;;43.72;18.20;;;3.10;99.90;;;;;;5005744;28;20025;-70
2021/03/25 04:31:43;;;;;;;47.90;18.00;;;3.10;99.90;;;;;;5005589;28;20049;-70
2021/03/25 04:34:10;;;;;;;42.15;17.50;;;3.00;99.90;;;;;;5005860;28;20053;-70
2021/03/25 04:36:43;;;;;;;46.92;18.02;;;3.00;99.90;;;;;;5005125;28;20572;-70
2021/03/25 04:39:12;;;;;;;44.53;18.60;;;3.00;99.90;;;;;;5004904;28;20149;-70
2021/03/25 04:41:41;;;;;;;43.38;17.92;;;3.00;99.90;;;;;;5005936;28;20091;-70
2021/03/25 04:44:19;;;;;;;52.00;18.85;;;3.00;99.90;;;;;;5004860;28;20025;-70
2021/03/25 04:47:14;;;;;;;50.50;18.33;;;3.00;99.90;;;;;;5004082;28;20022;-70
2021/03/25 04:50:01;;;;;;;45.55;17.45;;;3.00;99.90;;;;;;4999081;28;20473;-70
2021/03/25 04:52:32;;;;;;;46.47;18.65;;;3.00;99.90;;;;;;5002375;28;20555;-70
2021/03/25 04:55:14;;;;;;;47.42;18.92;;;3.00;99.90;;;;;;4999769;28;20037;-70
2021/03/25 04:58:04;;;;;;;46.25;18.25;;;3.00;99.90;;;;;;5000004;28;20535;-70
2021/03/25 05:00:37;;;;;;;56.80;19.70;;;3.00;99.90;;;;;;5000427;28;20036;-71
2021/03/25 05:03:04;;;;;;;50.70;20.63;;;2.90;99.90;;;;;;4999255;28;20393;-70
2021/03/25 05:05:32;;;;;;;46.58;21.35;;;2.90;99.90;;;;;;4999823;28;20034;-70
2021/03/25 05:08:04;;;;;;;53.85;19.15;;;3.00;99.90;;;;;;5000700;28;20066;-70
2021/03/25 05:10:42;;;;;;;50.78;19.83;;;3.00;99.90;;;;;;4999945;28;20033;-70
2021/03/25 05:13:33;;;;;;;54.05;19.15;;;3.00;99.90;;;;;;5000376;28;20077;-70
2021/03/25 05:16:22;;;;;;;53.15;19.63;;;3.00;99.90;;;;;;5000338;28;20123;-70
2021/03/25 05:19:17;;;;;;;44.55;18.92;;;3.00;99.90;;;;;;4998320;28;20088;-70
2021/03/25 05:22:05;;;;;;;49.22;18.38;;;3.00;99.90;;;;;;4999405;28;20056;-70
2021/03/25 05:24:34;;;;;;;61.55;19.13;;;3.00;99.90;;;;;;5000315;28;20034;-70
2021/03/25 05:27:37;;;;;;;57.05;20.50;;;3.00;99.90;;;;;;4999868;28;20485;-70
2021/03/25 05:30:08;;;;;;;61.92;19.33;;;3.00;99.90;;;;;;4999688;28;20374;-70
2021/03/25 05:32:38;;;;;;;55.55;19.60;;;3.00;99.90;;;;;;4999216;28;20418;-70
2021/03/25 05:35:06;;;;;;;;;;;3.10;99.90;;;;;;4997817;28;20033;-70
2021/03/25 05:37:32;;;;;;;58.08;21.67;;;3.10;99.90;;;;;;4999249;28;19916;-70
2021/03/25 05:40:00;;;;;;;73.00;23.08;;;3.10;99.90;;;;;;4999394;28;20088;-70
2021/03/25 05:42:42;;;;;;;52.50;19.65;;;3.10;99.90;;;;;;4999569;28;20380;-70
2021/03/25 05:45:13;;;;;;;64.38;21.98;;;3.10;99.90;;;;;;4998664;28;20486;-70
2021/03/25 05:48:01;;;;;;;68.53;22.98;;;3.20;99.90;;;;;;4999561;28;20073;-70
2021/03/25 05:51:02;;;;;;;59.72;20.48;;;3.20;99.90;;;;;;4998281;28;20030;-70
2021/03/25 05:53:36;;;;;;;64.28;21.13;;;3.30;99.90;;;;;;4999013;28;20097;-70
2021/03/25 05:56:27;;;;;;;67.93;23.65;;;3.30;99.90;;;;;;4998835;28;20537;-70
2021/03/25 05:59:06;;;;;;;65.10;22.42;;;3.40;99.90;;;;;;4998664;28;20359;-70
2021/03/25 06:02:10;;;;;;;69.72;21.38;;;3.40;99.90;;;;;;4997106;28;20088;-70
2021/03/25 06:04:38;;;;;;;68.78;20.98;;;3.40;99.90;;;;;;4974205;28;20430;-70
2021/03/25 06:07:20;;;;;;;72.68;22.55;;;3.40;99.90;;;;;;4974832;28;20178;-70
2021/03/25 06:10:17;;;;;;;67.13;23.48;;;3.50;99.90;;;;;;4987598;28;20038;-70
2021/03/25 06:13:21;;;;;;;64.50;23.83;;;3.50;99.90;;;;;;4997426;28;20026;-70
2021/03/25 06:16:02;;;;;;;75.07;23.63;;;3.60;99.90;;;;;;4997839;28;20037;-70
2021/03/25 06:18:46;;;;;;;72.03;24.40;;;3.70;99.90;;;;;;4996988;28;20049;-70
2021/03/25 06:21:51;;;;;;;95.07;27.10;;;3.70;99.90;;;;;;4998472;28;20036;-70
2021/03/25 06:24:48;;;;;;;81.43;24.65;;;3.80;99.90;;;;;;4996311;28;20042;-70
2021/03/25 06:27:29;;;;;;;91.15;27.92;;;3.80;99.90;;;;;;4996507;28;20028;-70
2021/03/25 06:30:10;;;;;;;76.72;25.13;;;3.80;99.90;;;;;;4997302;28;20156;-70
2021/03/25 06:32:49;;;;;;;90.47;25.40;;;3.90;99.90;;;;;;4997224;28;20060;-70
2021/03/25 06:35:23;;;;;;;77.60;24.35;;;3.90;99.90;;;;;;4997222;28;20328;-70
2021/03/25 06:37:56;;;;;;;85.22;24.65;;;3.90;99.90;;;;;;4997806;28;20580;-70
2021/03/25 06:40:26;;;;;;;103.15;26.58;;;3.90;99.90;;;;;;4997189;28;20034;-70
2021/03/25 06:43:00;;;;;;;77.20;24.42;;;4.00;99.90;;;;;;4997929;28;20591;-70
2021/03/25 06:45:39;;;;;;;73.97;25.08;;;4.00;99.90;;;;;;4997862;28;20128;-70
2021/03/25 06:48:17;;;;;;;85.53;24.80;;;4.10;99.90;;;;;;4998379;28;20481;-70
2021/03/25 06:50:48;;;;;;;105.15;32.53;;;4.20;99.90;;;;;;4998077;28;20144;-70
2021/03/25 06:53:27;;;;;;;86.03;29.05;;;4.30;99.90;;;;;;4997991;28;20118;-70
2021/03/25 06:56:04;;;;;;;88.32;27.65;;;4.30;99.90;;;;;;4998315;28;20634;-70
2021/03/25 06:58:45;;;;;;;108.65;30.70;;;4.40;99.90;;;;;;4998051;28;20367;-70
2021/03/25 07:01:31;;;;;;;95.22;28.85;;;4.50;99.90;;;;;;4998524;28;20111;-70
2021/03/25 07:04:03;;;;;;;93.90;30.08;;;4.50;99.90;;;;;;4998820;28;20103;-70
2021/03/25 07:06:32;;;;;;;97.32;30.95;;;4.60;99.90;;;;;;4997819;28;20040;-70
2021/03/25 07:08:58;;;;;;;112.50;31.95;;;4.60;99.90;;;;;;4997654;28;20481;-70
2021/03/25 07:11:28;;;;;;;95.60;33.53;;;4.60;99.90;;;;;;4998257;28;20064;-70
2021/03/25 07:14:02;;;;;;;106.85;32.28;;;4.70;99.90;;;;;;4997755;28;20034;-70
2021/03/25 07:16:31;;;;;;;90.47;30.73;;;4.80;99.90;;;;;;4996612;28;20065;-70
2021/03/25 07:19:11;;;;;;;108.53;33.95;;;4.80;99.90;;;;;;4996780;28;20103;-70
2021/03/25 07:21:51;;;;;;;98.85;33.70;;;5.00;99.90;;;;;;4997685;28;20032;-70
2021/03/25 07:24:22;;;;;;;92.95;34.03;;;5.00;99.90;;;;;;4997519;28;20044;-70
2021/03/25 07:26:56;;;;;;;103.03;35.75;;;5.10;99.90;;;;;;4998003;28;20037;-70
2021/03/25 07:29:30;;;;;;;88.20;32.25;;;5.10;99.90;;;;;;4997976;28;20559;-70
2021/03/25 07:32:07;;;;;;;89.85;32.40;;;5.20;99.90;;;;;;4997393;28;20021;-70
2021/03/25 07:34:47;;;;;;;99.50;34.78;;;5.20;99.90;;;;;;4997776;28;20045;-70
2021/03/25 07:37:35;;;;;;;92.20;34.53;;;5.20;99.90;;;;;;4995348;28;20505;-70
2021/03/25 07:40:05;;;;;;;94.47;35.17;;;5.30;99.90;;;;;;4997525;28;20041;-70
2021/03/25 07:42:38;;;;;;;98.53;35.20;;;5.30;99.90;;;;;;4997681;28;20026;-70
2021/03/25 07:45:28;;;;;;;99.38;35.38;;;5.40;99.90;;;;;;4997429;28;20030;-70
2021/03/25 07:48:05;;;;;;;95.25;34.63;;;5.30;99.90;;;;;;4997166;28;20909;-70
2021/03/25 07:50:35;;;;;;;96.50;36.22;;;5.40;99.90;;;;;;4997420;28;20041;-70
2021/03/25 07:53:16;;;;;;;105.13;37.70;;;5.50;99.90;;;;;;4998090;28;20033;-70
2021/03/25 07:55:42;;;;;;;97.15;34.97;;;5.50;99.90;;;;;;4997160;28;20076;-70
2021/03/25 07:58:33;;;;;;;90.50;33.35;;;5.50;99.90;;;;;;4997018;28;20081;-70
2021/03/25 08:01:14;;;;;;;89.90;35.88;;;5.60;99.90;;;;;;4995870;28;20474;-70
2021/03/25 08:03:54;;;;;;;89.60;34.17;;;5.70;99.90;;;;;;4996998;28;20055;-69
2021/03/25 08:06:23;;;;;;;86.18;34.40;;;5.70;99.90;;;;;;4997646;28;20026;-70
2021/03/25 08:09:07;;;;;;;96.63;34.53;;;5.80;99.90;;;;;;4996618;28;20025;-70
2021/03/25 08:11:48;;;;;;;94.47;34.95;;;5.80;99.90;;;;;;4997703;28;20065;-70
2021/03/25 08:14:31;;;;;;;78.47;32.25;;;5.80;99.90;;;;;;4997938;28;20592;-70
2021/03/25 08:17:15;;;;;;;95.85;36.85;;;5.80;99.90;;;;;;4997418;28;20053;-70
2021/03/25 08:20:12;;;;;;;82.30;32.58;;;5.80;99.90;;;;;;4996874;28;20077;-70
2021/03/25 08:23:00;;;;;;;85.57;34.17;;;5.90;99.90;;;;;;4997527;28;20581;-70
2021/03/25 08:25:41;;;;;;;78.57;31.23;;;5.90;99.90;;;;;;4996379;28;20101;-70
2021/03/25 08:28:16;;;;;;;80.40;31.63;;;5.90;99.90;;;;;;4999400;28;20200;-70
2021/03/25 08:31:03;;;;;;;72.70;30.83;;;5.90;99.90;;;;;;5000957;28;20049;-70
2021/03/25 08:33:46;;;;;;;70.82;29.90;;;5.90;99.90;;;;;;5000408;28;20373;-70
2021/03/25 08:36:31;;;;;;;64.30;28.92;;;6.00;99.90;;;;;;5000913;28;20032;-70
2021/03/25 08:39:31;;;;;;;70.70;30.10;;;5.90;99.90;;;;;;5000990;28;20048;-70
2021/03/25 08:42:04;;;;;;;60.88;28.73;;;5.90;99.90;;;;;;5000416;28;20141;-70
2021/03/25 08:44:44;;;;;;;70.57;29.25;;;6.00;99.90;;;;;;4999979;28;20044;-70
2021/03/25 08:47:25;;;;;;;61.05;26.75;;;6.10;99.90;;;;;;5000902;28;20037;-70
2021/03/25 08:50:36;;;;;;;66.38;29.40;;;6.10;99.90;;;;;;5000515;28;20497;-70
2021/03/25 08:53:16;;;;;;;57.20;26.25;;;6.10;99.90;;;;;;5000473;28;20034;-70
2021/03/25 08:55:42;;;;;;;63.47;27.25;;;6.10;99.90;;;;;;5000745;28;20026;-70
2021/03/25 08:58:20;;;;;;;63.17;29.00;;;6.20;99.90;;;;;;5000143;28;20096;-70
2021/03/25 09:00:50;;;;;;;56.70;26.75;;;6.30;99.90;;;;;;4999367;28;20021;-70
2021/03/25 09:03:28;;;;;;;59.90;27.25;;;6.30;99.90;;;;;;5000108;28;20556;-70
2021/03/25 09:06:15;;;;;;;59.00;26.35;;;6.30;99.90;;;;;;5000251;28;20449;-70
2021/03/25 09:08:44;;;;;;;60.85;27.92;;;6.30;99.90;;;;;;4999968;28;20022;-70
2021/03/25 09:11:13;;;;;;;56.90;27.05;;;6.30;99.90;;;;;;5000369;28;20022;-70
2021/03/25 09:13:44;;;;;;;59.58;29.42;;;6.30;99.90;;;;;;5000052;28;20087;-70
2021/03/25 09:16:30;;;;;;;67.03;29.67;;;6.30;99.90;;;;;;4999004;28;20504;-70
2021/03/25 09:18:57;;;;;;;61.13;30.20;;;6.40;99.90;;;;;;4999498;28;20753;-70
2021/03/25 09:21:26;;;;;;;64.85;30.15;;;6.50;99.90;;;;;;5000240;28;20040;-70
2021/03/25 09:24:04;;;;;;;68.38;29.60;;;6.40;99.90;;;;;;5000893;28;20121;-70
2021/03/25 09:26:30;;;;;;;64.03;32.33;;;6.50;99.90;;;;;;5000036;28;20030;-70
2021/03/25 09:28:59;;;;;;;64.28;30.33;;;6.70;99.90;;;;;;5000229;28;20033;-70
2021/03/25 09:31:27;;;;;;;63.83;31.67;;;6.70;99.90;;;;;;4999257;28;20485;-70
2021/03/25 09:33:55;;;;;;;67.00;29.40;;;6.60;99.90;;;;;;4999174;28;20137;-69
2021/03/25 09:36:21;;;;;;;62.90;29.25;;;6.80;99.90;;;;;;4998641;28;20022;-70
2021/03/25 09:38:59;;;;;;;71.28;31.38;;;6.60;99.90;;;;;;4997894;28;20045;-70
2021/03/25 09:41:25;;;;;;;61.42;30.50;;;6.80;99.90;;;;;;4999757;28;20065;-70
2021/03/25 09:44:20;;;;;;;56.30;29.15;;;7.10;99.90;;;;;;4999305;28;20064;-70
2021/03/25 09:46:54;;;;;;;61.00;29.60;;;7.20;99.90;;;;;;4996844;28;20104;-70
2021/03/25 09:49:27;;;;;;;58.33;30.42;;;7.20;99.90;;;;;;4999799;28;20462;-70
2021/03/25 09:52:19;;;;;;;58.65;28.80;;;7.30;99.90;;;;;;4999404;28;20103;-70
2021/03/25 09:54:53;;;;;;;65.68;29.60;;;7.20;99.90;;;;;;4995538;28;20125;-70
2021/03/25 09:57:19;;;;;;;53.25;28.42;;;7.20;99.90;;;;;;4998724;28;20030;-70
2021/03/25 09:59:52;;;;;;;50.00;25.63;;;7.20;99.90;;;;;;4999744;28;20065;-70
2021/03/25 10:02:37;;;;;;;53.00;28.75;;;7.30;99.90;;;;;;4998868;28;20484;-70
2021/03/25 10:05:32;;;;;;;47.72;25.42;;;7.20;99.90;;;;;;4999491;28;20029;-70
2021/03/25 10:08:09;;;;;;;56.38;29.02;;;7.20;99.90;;;;;;4998777;28;20040;-70
2021/03/25 10:10:54;;;;;;;54.10;28.75;;;7.40;99.90;;;;;;4998868;28;20043;-70
2021/03/25 10:13:46;;;;;;;54.97;29.92;;;7.20;99.90;;;;;;4998932;28;20116;-70
2021/03/25 10:16:34;;;;;;;67.25;31.05;;;7.20;99.90;;;;;;4999232;28;20113;-70
2021/03/25 10:19:08;;;;;;;55.30;29.75;;;7.30;99.90;;;;;;4998003;28;20041;-70
2021/03/25 10:21:52;;;;;;;58.80;29.98;;;7.40;99.90;;;;;;4998643;28;20037;-70
2021/03/25 10:24:26;;;;;;;58.72;31.35;;;7.50;99.90;;;;;;4998344;28;20069;-70
2021/03/25 10:27:02;;;;;;;66.63;31.48;;;7.60;99.90;;;;;;4998434;28;20018;-70
2021/03/25 10:29:34;;;;;;;57.67;31.40;;;7.60;99.90;;;;;;4998583;28;20041;-70
2021/03/25 10:32:01;;;;;;;60.95;29.88;;;7.50;99.90;;;;;;4998686;28;20033;-70
2021/03/25 10:34:44;;;;;;;68.78;31.92;;;7.50;99.90;;;;;;4998279;28;20153;-70
2021/03/25 10:37:33;;;;;;;67.00;33.92;;;7.60;99.90;;;;;;4998117;28;20087;-70
2021/03/25 10:40:20;;;;;;;62.60;32.75;;;7.60;99.90;;;;;;4998778;28;20073;-69
2021/03/25 10:42:58;;;;;;;61.58;30.27;;;7.60;99.90;;;;;;4998007;28;20084;-70
2021/03/25 10:45:37;;;;;;;60.28;28.83;;;7.80;99.90;;;;;;4996945;28;20030;-70
2021/03/25 10:48:17;;;;;;;62.60;32.45;;;7.90;99.90;;;;;;4998029;28;20135;-70
2021/03/25 10:50:54;;;;;;;;;;;7.70;99.90;;;;;;4998930;28;20034;-70
2021/03/25 10:53:28;;;;;;;65.85;30.42;;;7.80;99.90;;;;;;4998254;28;19920;-70
2021/03/25 10:56:15;;;;;;;73.82;32.80;;;7.90;99.90;;;;;;4997723;28;20063;-70
2021/03/25 10:58:56;;;;;;;68.15;32.90;;;7.80;99.90;;;;;;4997444;28;20076;-70
2021/03/25 11:01:27;;;;;;;71.10;33.10;;;7.80;99.90;;;;;;4997886;28;20025;-70
2021/03/25 11:03:53;;;;;;;64.15;33.38;;;7.90;99.90;;;;;;4997714;28;20030;-70
2021/03/25 11:06:28;;;;;;;70.15;33.13;;;7.90;99.90;;;;;;4998440;28;20480;-70
2021/03/25 11:09:07;;;;;;;76.78;34.42;;;8.00;99.90;;;;;;4997931;28;20030;-70
2021/03/25 11:11:36;;;;;;;70.32;32.35;;;8.10;99.90;;;;;;4998421;28;20033;-70
2021/03/25 11:14:26;;;;;;;71.97;34.80;;;8.10;99.90;;;;;;4998171;28;20815;-70
2021/03/25 11:16:58;;;;;;;68.00;34.97;;;8.20;99.90;;;;;;4997914;28;20030;-70
2021/03/25 11:19:25;;;;;;;77.10;37.58;;;8.20;99.90;;;;;;4997486;28;20049;-70
2021/03/25 11:21:55;;;;;;;75.28;38.85;;;8.30;99.90;;;;;;4997826;28;20075;-70
2021/03/25 11:24:28;;;;;;;78.30;35.83;;;8.40;99.90;;;;;;4998189;28;20435;-70
2021/03/25 11:27:00;;;;;;;77.40;36.03;;;8.40;99.90;;;;;;4997251;28;20049;-70
2021/03/25 11:29:31;;;;;;;69.90;35.25;;;8.50;99.90;;;;;;4998912;28;20034;-70
2021/03/25 11:32:09;;;;;;;66.93;35.67;;;8.50;99.90;;;;;;4997379;28;20517;-70
2021/03/25 11:34:38;;;;;;;72.70;37.88;;;8.60;99.90;;;;;;4996906;28;20079;-70
2021/03/25 11:37:22;;;;;;;75.10;33.75;;;8.70;99.90;;;;;;4997366;28;20464;-70
2021/03/25 11:39:56;;;;;;;76.32;36.83;;;8.80;99.90;;;;;;4996598;28;20046;-70
2021/03/25 11:42:22;;;;;;;78.72;39.08;;;8.80;99.90;;;;;;4997110;28;20022;-70
2021/03/25 11:44:49;;;;;;;79.68;37.17;;;8.80;99.90;;;;;;4998017;28;20061;-70
2021/03/25 11:47:39;;;;;;;73.47;36.97;;;9.00;99.90;;;;;;4998667;28;20030;-70
2021/03/25 11:50:15;;;;;;;73.38;36.05;;;9.20;99.90;;;;;;4996454;28;20109;-70
2021/03/25 11:52:43;;;;;;;66.20;35.40;;;9.50;99.90;;;;;;4997100;28;20423;-70
2021/03/25 11:55:22;;;;;;;73.68;35.92;;;9.60;99.90;;;;;;4997614;28;20026;-70
2021/03/25 11:57:50;;;;;;;65.72;33.28;;;9.50;99.90;;;;;;4997307;28;20531;-70
2021/03/25 12:00:24;;;;;;;67.50;35.83;;;9.70;99.90;;;;;;4997034;28;20149;-70
2021/03/25 12:02:55;;;;;;;75.85;37.75;;;9.90;99.90;;;;;;4998991;28;20512;-70
2021/03/25 12:05:30;;;;;;;63.17;34.90;;;10.10;99.90;;;;;;5001459;28;22565;-70
2021/03/25 12:08:21;;;;;;;73.57;36.33;;;10.40;99.90;;;;;;5000865;28;20107;-70
2021/03/25 12:10:57;;;;;;;61.40;33.42;;;10.60;99.90;;;;;;5001641;28;20119;-70
2021/03/25 12:13:23;;;;;;;66.30;34.15;;;10.70;99.90;;;;;;5001233;28;20510;-70
2021/03/25 12:15:50;;;;;;;61.00;33.85;;;10.80;99.90;;;;;;5001155;28;20404;-70
2021/03/25 12:18:31;;;;;;;68.03;36.75;;;10.90;99.90;;;;;;5000691;28;20052;-70
2021/03/25 12:21:03;;;;;;;58.25;33.10;;;10.60;99.90;;;;;;5001126;28;20069;-70
2021/03/25 12:23:32;;;;;;;58.00;30.98;;;10.60;99.90;;;;;;5000776;28;20060;-70
2021/03/25 12:26:00;;;;;;;61.13;34.53;;;10.60;99.90;;;;;;5001139;28;20029;-70
2021/03/25 12:28:26;;;;;;;58.97;33.20;;;10.70;99.90;;;;;;5000708;28;20077;-70
2021/03/25 12:30:53;;;;;;;67.68;33.42;;;11.20;99.90;;;;;;5001359;28;20026;-70
2021/03/25 12:33:18;;;;;;;60.47;32.25;;;11.30;99.90;;;;;;5000742;28;20072;-69
2021/03/25 12:35:44;;;;;;;60.72;33.45;;;11.30;99.90;;;;;;5000072;28;20128;-70
2021/03/25 12:38:11;;;;;;;57.22;30.80;;;11.40;99.90;;;;;;5000843;28;20037;-70
2021/03/25 12:40:37;;;;;;;58.10;29.30;;;11.60;99.90;;;;;;4999319;28;20037;-70
2021/03/25 12:43:03;;;;;;;58.00;30.55;;;11.90;99.90;;;;;;5000703;28;20021;-70
2021/03/25 12:45:41;;;;;;;54.92;30.38;;;11.50;99.90;;;;;;5001169;28;20037;-70
2021/03/25 12:48:08;;;;;;;62.83;32.30;;;11.60;99.90;;;;;;5000357;28;20513;-70
2021/03/25 12:50:35;;;;;;;60.40;32.95;;;11.70;99.90;;;;;;5000433;28;20133;-70
2021/03/25 12:53:02;;;;;;;56.10;30.25;;;11.90;99.90;;;;;;5000342;28;20018;-70
2021/03/25 12:55:28;;;;;;;48.90;28.83;;;12.30;99.90;;;;;;4999865;28;20592;-70
2021/03/25 12:57:57;;;;;;;57.10;30.38;;;12.30;99.90;;;;;;5000997;28;20062;-70
2021/03/25 13:00:36;;;;;;;61.97;31.80;;;12.10;99.90;;;;;;5000211;28;20036;-70
2021/03/25 13:03:04;;;;;;;50.10;29.30;;;12.30;99.90;;;;;;5000105;28;20096;-71
2021/03/25 13:05:30;;;;;;;54.97;29.40;;;12.50;99.90;;;;;;5000170;28;20061;-71
2021/03/25 13:07:56;;;;;;;58.58;31.15;;;12.60;99.90;;;;;;4999534;28;20033;-71
2021/03/25 13:10:28;;;;;;;58.53;29.88;;;12.70;99.90;;;;;;5000237;28;20036;-71
2021/03/25 13:12:56;;;;;;;53.53;28.20;;;13.10;99.90;;;;;;5000026;28;20029;-70
2021/03/25 13:15:22;;;;;;;59.90;29.45;;;13.10;99.90;;;;;;4998714;28;20037;-71
2021/03/25 13:17:49;;;;;;;45.25;23.65;;;12.80;99.90;;;;;;4999898;28;20658;-70
2021/03/25 13:20:21;;;;;;;46.50;22.02;;;12.80;99.90;;;;;;4999299;28;20081;-71